createdAt,value
2018-03-07T00:02:04.835Z,10.94
2018-03-07T00:04:32.474Z,10.96
2018-03-07T00:07:00.067Z,10.97
2018-03-07T00:09:27.778Z,10.95
2018-03-07T00:11:55.385Z,10.98
2018-03-07T00:14:23.010Z,10.98
2018-03-07T00:16:50.639Z,10.96
2018-03-07T00:19:18.278Z,10.94
2018-03-07T00:21:45.878Z,10.89
2018-03-07T00:24:13.513Z,10.93
2018-03-07T00:26:41.178Z,10.89
2018-03-07T00:29:08.793Z,10.81
2018-03-07T00:31:36.580Z,10.66
2018-03-07T00:34:04.239Z,10.28
2018-03-07T00:36:31.962Z,10.05
2018-03-07T00:38:59.589Z,10.00
2018-03-07T00:41:27.192Z,10.07
2018-03-07T00:43:54.812Z,10.22
2018-03-07T00:46:22.480Z,10.26
2018-03-07T00:48:50.117Z,10.32
2018-03-07T00:51:17.722Z,10.34
2018-03-07T00:53:45.346Z,10.31
2018-03-07T00:56:12.958Z,10.22
2018-03-07T00:58:40.582Z,10.25
2018-03-07T01:01:08.166Z,10.31
2018-03-07T01:03:35.898Z,10.36
2018-03-07T01:06:03.503Z,10.37
2018-03-07T01:08:31.123Z,10.38
2018-03-07T01:10:58.722Z,10.41
2018-03-07T01:13:26.342Z,10.35
2018-03-07T01:15:53.935Z,10.25
2018-03-07T01:18:21.682Z,10.22
2018-03-07T01:20:49.295Z,10.22
2018-03-07T01:23:16.925Z,10.25
2018-03-07T01:25:44.523Z,10.29
2018-03-07T01:28:12.250Z,10.30
2018-03-07T01:30:39.847Z,10.30
2018-03-07T01:33:07.455Z,10.32
2018-03-07T01:35:35.107Z,10.37
2018-03-07T01:38:02.734Z,10.41
2018-03-07T01:40:30.339Z,10.48
2018-03-07T01:42:57.978Z,10.46
2018-03-07T01:45:25.606Z,10.35
2018-03-07T01:47:53.333Z,10.13
2018-03-07T01:50:20.930Z,10.08
2018-03-07T01:52:48.599Z,10.12
2018-03-07T01:55:16.204Z,10.17
2018-03-07T01:57:44.003Z,10.25
2018-03-07T02:00:11.606Z,10.32
2018-03-07T02:02:39.239Z,10.30
2018-03-07T02:05:06.838Z,10.24
2018-03-07T02:07:34.478Z,10.25
2018-03-07T02:10:02.102Z,10.25
2018-03-07T02:12:29.726Z,10.27
2018-03-07T02:14:57.335Z,10.25
2018-03-07T02:17:24.950Z,10.24
2018-03-07T02:19:52.549Z,10.25
2018-03-07T02:22:20.370Z,10.25
2018-03-07T02:24:47.983Z,10.30
2018-03-07T02:27:15.622Z,10.25
2018-03-07T02:29:43.245Z,10.29
2018-03-07T02:32:10.888Z,10.28
2018-03-07T02:34:38.575Z,10.24
2018-03-07T02:37:06.200Z,10.27
2018-03-07T02:39:33.835Z,10.20
2018-03-07T02:42:01.633Z,10.05
2018-03-07T02:44:29.238Z,9.89
2018-03-07T02:46:56.870Z,9.89
2018-03-07T02:49:24.594Z,9.91
2018-03-07T02:51:52.221Z,9.68
2018-03-07T02:54:19.816Z,9.55
2018-03-07T02:56:47.438Z,9.49
2018-03-07T02:59:15.035Z,9.31
2018-03-07T03:01:42.662Z,9.38
2018-03-07T03:04:10.265Z,9.55
2018-03-07T03:06:37.935Z,9.63
2018-03-07T03:09:05.527Z,9.66
2018-03-07T03:11:33.186Z,9.72
2018-03-07T03:14:00.788Z,9.80
2018-03-07T03:16:28.422Z,9.89
2018-03-07T03:18:56.031Z,9.88
2018-03-07T03:21:23.629Z,9.89
2018-03-07T03:23:51.285Z,9.84
2018-03-07T03:26:18.864Z,9.81
2018-03-07T03:28:46.488Z,9.81
2018-03-07T03:31:14.098Z,9.85
2018-03-07T03:33:41.851Z,9.87
2018-03-07T03:36:09.498Z,9.87
2018-03-07T03:38:37.159Z,9.80
2018-03-07T03:41:04.754Z,9.81
2018-03-07T03:43:32.397Z,9.80
2018-03-07T03:46:00.021Z,9.75
2018-03-07T03:48:27.639Z,9.74
2018-03-07T03:50:55.270Z,9.73
2018-03-07T03:53:22.858Z,9.76
2018-03-07T03:55:50.495Z,9.70
2018-03-07T03:58:18.078Z,9.65
2018-03-07T04:00:45.778Z,9.59
2018-03-07T04:03:13.374Z,9.58
2018-03-07T04:05:41.020Z,9.56
2018-03-07T04:08:08.619Z,9.54
2018-03-07T04:10:36.260Z,9.54
2018-03-07T04:13:03.844Z,9.51
2018-03-07T04:15:31.474Z,9.43
2018-03-07T04:17:59.070Z,9.41
2018-03-07T04:20:26.706Z,9.03
2018-03-07T04:22:54.297Z,8.67
2018-03-07T04:25:21.893Z,8.55
2018-03-07T04:27:49.518Z,8.58
2018-03-07T04:30:17.118Z,8.61
2018-03-07T04:32:45.550Z,8.62
2018-03-07T04:35:13.186Z,8.75
2018-03-07T04:37:40.814Z,8.82
2018-03-07T04:40:08.400Z,8.69
2018-03-07T04:42:36.049Z,8.52
2018-03-07T04:45:03.621Z,8.45
2018-03-07T04:47:31.242Z,8.45
2018-03-07T04:49:58.831Z,8.58
2018-03-07T04:52:26.458Z,8.69
2018-03-07T04:54:54.061Z,8.78
2018-03-07T04:57:21.758Z,8.53
2018-03-07T04:59:49.346Z,8.27
2018-03-07T05:02:16.970Z,8.02
2018-03-07T05:04:44.571Z,7.91
2018-03-07T05:07:12.194Z,7.83
2018-03-07T05:09:39.795Z,7.73
2018-03-07T05:12:07.414Z,7.64
2018-03-07T05:14:35.014Z,7.67
2018-03-07T05:17:02.594Z,7.71
2018-03-07T05:19:30.225Z,7.74
2018-03-07T05:21:57.817Z,7.75
2018-03-07T05:24:25.472Z,7.62
2018-03-07T05:26:53.062Z,7.64
2018-03-07T05:29:20.711Z,7.62
2018-03-07T05:31:48.360Z,7.57
2018-03-07T05:34:15.989Z,7.46
2018-03-07T05:36:43.626Z,7.37
2018-03-07T05:39:11.250Z,7.25
2018-03-07T05:41:38.874Z,7.23
2018-03-07T05:44:06.507Z,7.21
2018-03-07T05:46:34.109Z,7.17
2018-03-07T05:49:01.821Z,7.26
2018-03-07T05:51:29.409Z,7.31
2018-03-07T05:53:57.085Z,7.25
2018-03-07T05:56:25.272Z,7.20
2018-03-07T05:58:52.920Z,7.36
2018-03-07T06:01:20.529Z,7.55
2018-03-07T06:03:48.166Z,7.63
2018-03-07T06:06:15.762Z,7.64
2018-03-07T06:08:43.420Z,7.69
2018-03-07T06:11:11.038Z,7.74
2018-03-07T06:13:38.638Z,7.88
2018-03-07T06:16:06.254Z,7.89
2018-03-07T06:18:33.871Z,7.92
2018-03-07T06:21:01.464Z,7.79
2018-03-07T06:23:29.091Z,7.78
2018-03-07T06:25:56.687Z,7.87
2018-03-07T06:28:24.339Z,7.79
2018-03-07T06:30:51.922Z,7.74
2018-03-07T06:33:19.545Z,7.76
2018-03-07T06:35:47.147Z,7.78
2018-03-07T06:38:14.737Z,7.81
2018-03-07T06:40:42.358Z,7.66
2018-03-07T06:43:10.050Z,7.58
2018-03-07T06:45:37.641Z,7.55
2018-03-07T06:48:05.291Z,7.63
2018-03-07T06:50:32.843Z,7.36
2018-03-07T06:53:00.435Z,7.36
2018-03-07T06:55:28.070Z,7.41
2018-03-07T06:57:55.682Z,7.48
2018-03-07T07:00:23.278Z,7.41
2018-03-07T07:02:50.910Z,7.07
2018-03-07T07:05:18.523Z,6.94
2018-03-07T07:07:46.169Z,6.98
2018-03-07T07:10:13.834Z,6.98
2018-03-07T07:12:41.472Z,7.03
2018-03-07T07:15:09.089Z,7.06
2018-03-07T07:17:36.759Z,7.12
2018-03-07T07:20:04.394Z,7.20
2018-03-07T07:22:32.133Z,7.21
2018-03-07T07:24:59.775Z,7.37
2018-03-07T07:27:27.420Z,7.40
2018-03-07T07:29:55.012Z,7.37
2018-03-07T07:32:22.626Z,7.42
2018-03-07T07:34:50.482Z,7.34
2018-03-07T07:37:18.086Z,7.33
2018-03-07T07:39:45.711Z,7.30
2018-03-07T07:42:13.298Z,7.36
2018-03-07T07:44:40.921Z,7.30
2018-03-07T07:47:08.508Z,7.33
2018-03-07T07:49:36.138Z,7.39
2018-03-07T07:52:03.734Z,7.42
2018-03-07T07:54:31.412Z,7.41
2018-03-07T07:56:58.990Z,7.35
2018-03-07T07:59:26.634Z,7.32
2018-03-07T08:01:54.435Z,7.29
2018-03-07T08:04:22.080Z,7.31
2018-03-07T08:06:49.657Z,7.31
2018-03-07T08:09:17.287Z,7.37
2018-03-07T08:11:44.870Z,7.44
2018-03-07T08:14:12.654Z,7.54
2018-03-07T08:16:40.243Z,7.65
2018-03-07T08:19:07.910Z,7.79
2018-03-07T08:21:35.507Z,7.86
2018-03-07T08:24:03.128Z,7.98
2018-03-07T08:26:30.816Z,8.06
2018-03-07T08:28:58.434Z,8.06
2018-03-07T08:31:26.055Z,8.06
2018-03-07T08:33:53.703Z,8.03
2018-03-07T08:36:21.335Z,8.03
2018-03-07T08:38:49.071Z,8.09
2018-03-07T08:41:16.654Z,8.04
2018-03-07T08:43:44.282Z,8.02
2018-03-07T08:46:11.879Z,8.03
2018-03-07T08:48:39.514Z,8.06
2018-03-07T08:51:07.108Z,8.06
2018-03-07T08:53:34.726Z,8.11
2018-03-07T08:56:02.323Z,8.07
2018-03-07T08:58:29.990Z,8.01
2018-03-07T09:00:57.605Z,7.97
2018-03-07T09:03:26.758Z,8.06
2018-03-07T09:05:54.363Z,8.09
2018-03-07T09:08:22.008Z,8.15
2018-03-07T09:10:49.701Z,8.17
2018-03-07T09:13:17.343Z,8.23
2018-03-07T09:15:44.942Z,8.22
2018-03-07T09:18:12.557Z,8.16
2018-03-07T09:20:40.197Z,8.11
2018-03-07T09:23:07.990Z,8.13
2018-03-07T09:25:35.587Z,8.23
2018-03-07T09:28:03.291Z,8.27
2018-03-07T09:30:30.930Z,8.27
2018-03-07T09:32:58.612Z,8.31
2018-03-07T09:35:26.227Z,8.29
2018-03-07T09:37:53.837Z,8.31
2018-03-07T09:40:21.452Z,8.33
2018-03-07T09:42:49.157Z,8.25
2018-03-07T09:45:16.739Z,8.29
2018-03-07T09:47:44.532Z,8.25
2018-03-07T09:50:12.140Z,8.24
2018-03-07T09:52:39.758Z,8.22
2018-03-07T09:55:07.535Z,8.23
2018-03-07T09:57:35.198Z,8.28
2018-03-07T10:00:02.787Z,8.25
2018-03-07T10:02:30.442Z,8.24
2018-03-07T10:04:58.175Z,8.20
2018-03-07T10:07:25.814Z,8.17
2018-03-07T10:09:53.523Z,8.16
2018-03-07T10:12:21.119Z,8.11
2018-03-07T10:14:48.730Z,8.05
2018-03-07T10:17:16.338Z,8.05
2018-03-07T10:19:43.998Z,8.04
2018-03-07T10:22:11.629Z,7.97
2018-03-07T10:24:39.263Z,7.95
2018-03-07T10:27:06.847Z,7.93
2018-03-07T10:29:34.478Z,7.91
2018-03-07T10:32:02.073Z,7.92
2018-03-07T10:34:29.744Z,7.93
2018-03-07T10:36:57.378Z,7.96
2018-03-07T10:39:24.957Z,7.99
2018-03-07T10:41:52.743Z,8.01
2018-03-07T10:44:20.368Z,8.01
2018-03-07T10:46:47.958Z,8.04
2018-03-07T10:49:15.587Z,8.01
2018-03-07T10:51:43.202Z,8.11
2018-03-07T10:54:10.832Z,8.15
2018-03-07T10:56:38.462Z,8.17
2018-03-07T10:59:06.087Z,8.13
2018-03-07T11:01:33.680Z,8.13
2018-03-07T11:04:01.303Z,8.23
2018-03-07T11:06:28.919Z,8.42
2018-03-07T11:08:56.574Z,8.69
2018-03-07T11:11:24.175Z,8.70
2018-03-07T11:13:51.841Z,8.74
2018-03-07T11:16:19.395Z,8.82
2018-03-07T11:18:47.048Z,8.90
2018-03-07T11:21:14.655Z,8.98
2018-03-07T11:23:42.299Z,9.05
2018-03-07T11:26:09.968Z,9.22
2018-03-07T11:28:37.676Z,9.24
2018-03-07T11:31:05.266Z,9.28
2018-03-07T11:33:32.911Z,9.27
2018-03-07T11:36:00.531Z,9.39
2018-03-07T11:38:28.266Z,9.60
2018-03-07T11:40:55.862Z,9.71
2018-03-07T11:43:23.508Z,9.82
2018-03-07T11:45:51.111Z,9.88
2018-03-07T11:48:18.747Z,9.72
2018-03-07T11:50:46.339Z,9.72
2018-03-07T11:53:13.965Z,9.63
2018-03-07T11:55:41.572Z,9.63
2018-03-07T11:58:09.206Z,9.65
2018-03-07T12:00:36.797Z,9.62
2018-03-07T12:03:04.426Z,9.58
2018-03-07T12:05:32.026Z,9.58
2018-03-07T12:07:59.736Z,9.51
2018-03-07T12:10:27.346Z,9.49
2018-03-07T12:12:54.958Z,9.52
2018-03-07T12:15:22.649Z,9.52
2018-03-07T12:17:50.263Z,9.49
2018-03-07T12:20:17.880Z,9.47
2018-03-07T12:22:45.504Z,9.40
2018-03-07T12:25:13.098Z,9.40
2018-03-07T12:27:40.775Z,9.44
2018-03-07T12:30:08.370Z,9.49
2018-03-07T12:32:36.046Z,9.55
2018-03-07T12:35:03.698Z,9.51
2018-03-07T12:37:31.306Z,9.45
2018-03-07T12:39:58.914Z,9.43
2018-03-07T12:42:26.541Z,9.45
2018-03-07T12:44:54.138Z,9.46
2018-03-07T12:47:21.755Z,9.48
2018-03-07T12:49:49.352Z,9.47
2018-03-07T12:52:16.966Z,9.49
2018-03-07T12:54:44.586Z,9.51
2018-03-07T12:57:12.226Z,9.53
2018-03-07T12:59:39.827Z,9.59
2018-03-07T13:02:07.438Z,9.58
2018-03-07T13:04:35.038Z,9.67
2018-03-07T13:07:02.844Z,9.69
2018-03-07T13:09:30.427Z,9.68
2018-03-07T13:11:58.026Z,9.70
2018-03-07T13:14:25.734Z,9.76
2018-03-07T13:16:53.328Z,9.71
2018-03-07T13:19:20.912Z,9.75
2018-03-07T13:21:48.530Z,9.75
2018-03-07T13:24:16.110Z,9.75
2018-03-07T13:26:43.734Z,9.78
2018-03-07T13:29:11.330Z,9.82
2018-03-07T13:31:38.947Z,9.79
2018-03-07T13:34:06.617Z,9.82
2018-03-07T13:36:34.239Z,9.81
2018-03-07T13:39:01.844Z,9.82
2018-03-07T13:41:29.457Z,9.80
2018-03-07T13:43:57.050Z,9.82
2018-03-07T13:46:24.678Z,9.80
2018-03-07T13:48:52.358Z,9.78
2018-03-07T13:51:19.930Z,9.74
2018-03-07T13:53:47.566Z,9.71
2018-03-07T13:56:15.190Z,9.71
2018-03-07T13:58:42.810Z,9.69
2018-03-07T14:01:10.410Z,9.68
2018-03-07T14:03:38.018Z,9.71
2018-03-07T14:06:05.682Z,9.73
2018-03-07T14:08:33.362Z,9.70
2018-03-07T14:11:00.946Z,9.71
2018-03-07T14:13:28.570Z,9.69
2018-03-07T14:15:56.190Z,9.68
2018-03-07T14:18:23.810Z,9.67
2018-03-07T14:20:51.391Z,9.65
2018-03-07T14:23:19.010Z,9.70
2018-03-07T14:25:46.601Z,9.65
2018-03-07T14:28:14.319Z,9.64
2018-03-07T14:30:41.927Z,9.67
2018-03-07T14:33:09.526Z,9.72
2018-03-07T14:35:37.113Z,9.73
2018-03-07T14:38:04.755Z,9.70
2018-03-07T14:40:32.338Z,9.67
2018-03-07T14:42:59.966Z,9.67
2018-03-07T14:45:27.592Z,9.64
2018-03-07T14:47:55.222Z,9.66
2018-03-07T14:50:22.801Z,9.71
2018-03-07T14:52:50.435Z,9.73
2018-03-07T14:55:18.449Z,9.75
2018-03-07T14:57:46.105Z,9.74
2018-03-07T15:00:13.733Z,9.72
2018-03-07T15:02:41.707Z,9.74
2018-03-07T15:05:09.327Z,9.77
2018-03-07T15:07:36.975Z,9.75
2018-03-07T15:10:04.605Z,9.75
2018-03-07T15:12:32.244Z,9.79
2018-03-07T15:14:59.871Z,9.76
2018-03-07T15:17:28.098Z,9.75
2018-03-07T15:19:56.438Z,9.77
2018-03-07T15:22:24.148Z,9.74
2018-03-07T15:24:52.582Z,9.75
2018-03-07T15:27:20.225Z,9.78
2018-03-07T15:29:47.826Z,9.79
2018-03-07T15:32:15.442Z,9.84
2018-03-07T15:34:43.211Z,9.84
2018-03-07T15:37:10.864Z,9.80
2018-03-07T15:39:38.489Z,9.81
2018-03-07T15:42:06.166Z,9.81
2018-03-07T15:44:33.797Z,9.82
2018-03-07T15:47:01.473Z,9.77
2018-03-07T15:49:29.087Z,9.77
2018-03-07T15:51:56.707Z,9.81
2018-03-07T15:54:24.321Z,9.75
2018-03-07T15:56:51.958Z,9.74
2018-03-07T15:59:19.573Z,9.74
2018-03-07T16:01:47.200Z,9.67
2018-03-07T16:04:14.839Z,9.63
2018-03-07T16:06:42.487Z,9.67
2018-03-07T16:09:10.200Z,9.64
2018-03-07T16:11:37.870Z,9.67
2018-03-07T16:14:06.100Z,9.60
2018-03-07T16:16:33.732Z,9.56
2018-03-07T16:19:01.339Z,9.54
2018-03-07T16:21:29.771Z,9.48
2018-03-07T16:23:57.378Z,9.44
2018-03-07T16:26:25.575Z,9.42
2018-03-07T16:28:53.204Z,9.45
2018-03-07T16:31:20.846Z,9.42
2018-03-07T16:33:48.535Z,9.39
2018-03-07T16:36:16.190Z,9.36
2018-03-07T16:38:43.787Z,9.34
2018-03-07T16:41:11.376Z,9.32
2018-03-07T16:43:38.989Z,9.30
2018-03-07T16:46:06.630Z,9.30
2018-03-07T16:48:34.296Z,9.28
2018-03-07T16:51:01.916Z,9.33
2018-03-07T16:53:29.568Z,9.34
2018-03-07T16:55:59.206Z,9.33
2018-03-07T16:58:26.831Z,9.29
2018-03-07T17:00:54.468Z,9.25
2018-03-07T17:03:22.098Z,9.22
2018-03-07T17:05:49.697Z,9.24
2018-03-07T17:08:17.346Z,9.25
2018-03-07T17:10:44.972Z,9.25
2018-03-07T17:13:12.670Z,9.25
2018-03-07T17:15:40.301Z,9.29
2018-03-07T17:18:07.899Z,9.24
2018-03-07T17:20:35.521Z,9.29
2018-03-07T17:23:03.500Z,9.22
2018-03-07T17:25:31.138Z,9.19
2018-03-07T17:27:58.767Z,9.15
2018-03-07T17:30:27.337Z,9.04
2018-03-07T17:32:54.947Z,9.04
2018-03-07T17:35:22.565Z,8.98
2018-03-07T17:37:50.190Z,8.98
2018-03-07T17:40:17.890Z,8.98
2018-03-07T17:42:45.520Z,8.95
2018-03-07T17:45:13.159Z,8.88
2018-03-07T17:47:40.944Z,8.80
2018-03-07T17:50:08.639Z,8.72
2018-03-07T17:52:37.116Z,8.70
2018-03-07T17:55:04.750Z,8.71
2018-03-07T17:57:32.342Z,8.64
2018-03-07T17:59:59.963Z,8.59
2018-03-07T18:02:27.551Z,8.46
2018-03-07T18:04:55.179Z,8.34
2018-03-07T18:07:22.772Z,8.31
2018-03-07T18:09:50.407Z,8.16
2018-03-07T18:12:18.033Z,8.15
2018-03-07T18:14:45.622Z,8.11
2018-03-07T18:17:13.234Z,8.07
2018-03-07T18:19:40.844Z,8.07
2018-03-07T18:22:08.466Z,8.07
2018-03-07T18:24:36.103Z,8.06
2018-03-07T18:27:03.690Z,8.06
2018-03-07T18:29:31.285Z,8.01
2018-03-07T18:31:58.898Z,8.03
2018-03-07T18:34:26.525Z,8.08
2018-03-07T18:36:54.181Z,8.10
2018-03-07T18:39:21.794Z,8.08
2018-03-07T18:41:49.410Z,8.01
2018-03-07T18:44:17.036Z,7.98
2018-03-07T18:46:44.690Z,7.96
2018-03-07T18:49:12.313Z,7.92
2018-03-07T18:51:39.934Z,7.80
2018-03-07T18:54:07.532Z,7.78
2018-03-07T18:56:35.163Z,7.73
2018-03-07T18:59:02.818Z,7.68
2018-03-07T19:01:30.523Z,7.61
2018-03-07T19:03:58.143Z,7.60
2018-03-07T19:06:25.767Z,7.59
2018-03-07T19:08:53.364Z,7.57
2018-03-07T19:11:21.002Z,7.54
2018-03-07T19:13:49.329Z,7.47
2018-03-07T19:16:16.985Z,7.44
2018-03-07T19:18:44.590Z,7.40
2018-03-07T19:21:12.298Z,7.36
2018-03-07T19:23:39.923Z,7.44
2018-03-07T19:26:07.551Z,7.49
2018-03-07T19:28:35.154Z,7.51
2018-03-07T19:31:02.803Z,7.46
2018-03-07T19:33:30.532Z,7.42
2018-03-07T19:35:58.191Z,7.46
2018-03-07T19:38:25.820Z,7.45
2018-03-07T19:40:53.453Z,7.38
2018-03-07T19:43:21.051Z,7.35
2018-03-07T19:45:48.675Z,7.31
2018-03-07T19:48:16.334Z,7.25
2018-03-07T19:50:43.994Z,7.19
2018-03-07T19:53:11.612Z,7.22
2018-03-07T19:55:39.211Z,7.18
2018-03-07T19:58:06.871Z,7.14
2018-03-07T20:00:34.508Z,7.15
2018-03-07T20:03:02.162Z,7.14
2018-03-07T20:05:29.768Z,7.11
2018-03-07T20:07:57.380Z,7.12
2018-03-07T20:10:25.011Z,7.14
2018-03-07T20:12:52.887Z,7.20
2018-03-07T20:15:20.510Z,7.21
2018-03-07T20:17:48.143Z,7.19
2018-03-07T20:20:15.819Z,7.20
2018-03-07T20:22:43.433Z,7.24
2018-03-07T20:25:11.099Z,7.24
2018-03-07T20:27:38.740Z,7.21
2018-03-07T20:30:06.354Z,7.16
2018-03-07T20:32:33.942Z,7.25
2018-03-07T20:37:35.583Z,7.18
2018-03-07T20:40:03.215Z,7.20
2018-03-07T20:42:30.831Z,7.25
2018-03-07T20:44:58.461Z,7.33
2018-03-07T20:47:26.110Z,7.41
2018-03-07T20:49:53.774Z,7.39
2018-03-07T20:52:21.396Z,7.36
2018-03-07T20:54:49.067Z,7.40
2018-03-07T20:57:16.718Z,7.36
2018-03-07T20:59:44.307Z,7.34
2018-03-07T21:02:11.955Z,7.33
2018-03-07T21:04:39.522Z,7.34
2018-03-07T21:07:07.182Z,7.35
2018-03-07T21:09:34.834Z,7.30
2018-03-07T21:12:02.476Z,7.19
2018-03-07T21:14:30.264Z,7.16
2018-03-07T21:16:57.914Z,7.09
2018-03-07T21:19:25.523Z,6.87
2018-03-07T21:21:53.194Z,6.79
2018-03-07T21:24:20.903Z,6.60
2018-03-07T21:26:48.526Z,6.50
2018-03-07T21:29:16.142Z,6.48
2018-03-07T21:31:43.755Z,6.50
2018-03-07T21:34:12.068Z,6.44
2018-03-07T21:36:39.732Z,6.39
2018-03-07T21:39:07.390Z,6.38
2018-03-07T21:41:35.156Z,6.35
2018-03-07T21:44:02.759Z,6.31
2018-03-07T21:46:30.380Z,6.29
2018-03-07T21:48:57.969Z,6.31
2018-03-07T21:51:25.594Z,6.23
2018-03-07T21:53:53.198Z,6.22
2018-03-07T21:56:20.816Z,6.21
2018-03-07T21:58:48.418Z,6.24
2018-03-07T22:01:16.044Z,6.31
2018-03-07T22:03:43.685Z,6.36
2018-03-07T22:06:11.293Z,6.42
2018-03-07T22:08:39.106Z,6.41
2018-03-07T22:11:06.745Z,6.39
2018-03-07T22:13:34.376Z,6.39
2018-03-07T22:16:02.013Z,6.41
2018-03-07T22:18:30.282Z,6.46
2018-03-07T22:20:57.905Z,6.44
2018-03-07T22:23:25.650Z,6.46
2018-03-07T22:25:53.310Z,6.52
2018-03-07T22:28:20.954Z,6.56
2018-03-07T22:30:48.587Z,6.56
2018-03-07T22:33:16.171Z,6.58
2018-03-07T22:35:43.794Z,6.59
2018-03-07T22:38:11.391Z,6.59
2018-03-07T22:40:39.030Z,6.64
2018-03-07T22:43:06.663Z,6.62
2018-03-07T22:45:34.282Z,6.59
2018-03-07T22:48:01.889Z,6.58
2018-03-07T22:50:29.499Z,6.60
2018-03-07T22:52:57.094Z,6.62
2018-03-07T22:55:24.755Z,6.65
2018-03-07T22:57:52.357Z,6.67
2018-03-07T23:00:25.423Z,6.63
2018-03-07T23:02:53.020Z,6.63
2018-03-07T23:05:20.675Z,6.58
2018-03-07T23:07:48.330Z,6.60
2018-03-07T23:10:16.796Z,6.63
2018-03-07T23:12:44.490Z,6.65
2018-03-07T23:15:12.130Z,6.62
2018-03-07T23:17:39.786Z,6.65
2018-03-07T23:20:07.377Z,6.63
2018-03-07T23:22:35.018Z,6.58
2018-03-07T23:25:02.627Z,6.60
2018-03-07T23:27:30.282Z,6.60
2018-03-07T23:29:57.958Z,6.65
2018-03-07T23:32:25.562Z,6.68
2018-03-07T23:34:53.250Z,6.70
2018-03-07T23:37:20.871Z,6.71
2018-03-07T23:39:48.550Z,6.72
2018-03-07T23:42:16.206Z,6.75
2018-03-07T23:44:43.809Z,6.76
2018-03-07T23:47:11.438Z,6.76
2018-03-07T23:49:39.038Z,6.80
2018-03-07T23:52:06.723Z,6.82
2018-03-07T23:54:34.314Z,6.86
2018-03-07T23:57:01.956Z,6.84
2018-03-07T23:59:29.592Z,6.84
